createdAt,value
2022-10-22T00:00:56.821Z,100355.66
2022-10-22T00:04:01.233Z,100349.84
2022-10-22T00:07:03.326Z,100348.06
2022-10-22T00:10:12.950Z,100340.69
2022-10-22T00:13:15.976Z,100338.91
2022-10-22T00:16:26.706Z,100347.94
2022-10-22T00:19:30.197Z,100352.75
2022-10-22T00:22:39.382Z,100351.50
2022-10-22T00:25:48.970Z,100350.69
2022-10-22T00:29:03.489Z,100342.13
2022-10-22T00:32:10.860Z,100336.66
2022-10-22T00:35:13.067Z,100339.91
2022-10-22T00:38:19.266Z,100341.94
2022-10-22T00:41:28.470Z,100328.28
2022-10-22T00:44:56.046Z,100332.44
2022-10-22T00:48:03.492Z,100334.47
2022-10-22T00:51:08.268Z,100321.28
2022-10-22T00:54:23.545Z,100311.37
2022-10-22T01:01:16.515Z,100315.41
2022-10-22T01:04:25.308Z,100330.72
2022-10-22T01:07:27.524Z,100328.09
2022-10-22T01:11:02.568Z,100335.84
2022-10-22T01:14:14.278Z,100328.47
2022-10-22T01:17:39.082Z,100327.00
2022-10-22T01:20:53.248Z,100332.34
2022-10-22T01:27:13.787Z,100330.12
2022-10-22T01:30:17.964Z,100309.97
2022-10-22T01:34:00.186Z,100324.38
2022-10-22T01:37:03.117Z,100322.09
2022-10-22T01:40:06.028Z,100332.37
2022-10-22T01:43:09.770Z,100323.31
2022-10-22T01:46:14.815Z,100327.69
2022-10-22T01:49:39.996Z,100311.44
2022-10-22T01:53:08.366Z,100311.00
2022-10-22T01:56:40.513Z,100303.41
2022-10-22T01:59:43.388Z,100308.84
2022-10-22T02:06:24.530Z,100300.66
2022-10-22T02:09:31.375Z,100297.34
2022-10-22T02:12:45.543Z,100293.38
2022-10-22T02:15:50.953Z,100297.47
2022-10-22T02:18:58.833Z,100305.53
2022-10-22T02:22:01.958Z,100303.53
2022-10-22T02:25:16.006Z,100305.19
2022-10-22T02:28:35.756Z,100314.91
2022-10-22T02:31:43.764Z,100305.63
2022-10-22T02:34:49.108Z,100304.41
2022-10-22T02:37:59.963Z,100313.50
2022-10-22T02:41:12.050Z,100304.84
2022-10-22T02:44:15.887Z,100299.13
2022-10-22T02:47:26.732Z,100292.44
2022-10-22T02:50:38.565Z,100304.84
2022-10-22T02:53:56.378Z,100307.78
2022-10-22T02:56:58.773Z,100325.63
2022-10-22T03:00:07.897Z,100326.84
2022-10-22T03:03:10.336Z,100313.81
2022-10-22T03:06:14.244Z,100320.28
2022-10-22T03:09:21.261Z,100318.72
2022-10-22T03:12:31.063Z,100322.03
2022-10-22T03:15:53.471Z,100321.59
2022-10-22T03:18:56.013Z,100313.25
2022-10-22T03:22:21.829Z,100316.03
2022-10-22T03:25:25.991Z,100303.78
2022-10-22T03:28:31.801Z,100295.97
2022-10-22T03:31:40.614Z,100297.44
2022-10-22T03:34:43.003Z,100298.09
2022-10-22T03:37:52.475Z,100292.72
2022-10-22T03:40:55.065Z,100270.66
2022-10-22T03:43:59.053Z,100272.06
2022-10-22T03:47:18.363Z,100265.09
2022-10-22T03:50:24.656Z,100266.69
2022-10-22T03:53:28.145Z,100258.94
2022-10-22T03:56:32.002Z,100263.50
2022-10-22T03:59:50.409Z,100275.19
2022-10-22T04:02:54.549Z,100271.22
2022-10-22T04:06:05.122Z,100276.81
2022-10-22T04:09:07.265Z,100288.19
2022-10-22T04:12:17.348Z,100289.59
2022-10-22T04:15:20.144Z,100284.87
2022-10-22T04:22:03.187Z,100276.69
2022-10-22T04:25:11.803Z,100279.91
2022-10-22T04:28:16.328Z,100284.91
2022-10-22T04:31:35.792Z,100294.41
2022-10-22T04:34:42.917Z,100290.03
2022-10-22T04:38:02.163Z,100287.94
2022-10-22T04:41:21.115Z,100281.03
2022-10-22T04:44:23.384Z,100280.75
2022-10-22T04:47:33.803Z,100272.72
2022-10-22T04:51:16.229Z,100282.09
2022-10-22T04:54:29.010Z,100284.00
2022-10-22T04:57:34.693Z,100261.28
2022-10-22T05:00:49.689Z,100266.47
2022-10-22T05:03:53.572Z,100268.75
2022-10-22T05:07:14.695Z,100269.59
2022-10-22T05:10:34.291Z,100269.78
2022-10-22T05:13:36.449Z,100275.81
2022-10-22T05:16:51.474Z,100284.50
2022-10-22T05:19:53.539Z,100269.91
2022-10-22T05:29:35.525Z,100281.34
2022-10-22T05:32:37.632Z,100278.97
2022-10-22T05:35:43.185Z,100276.38
2022-10-22T05:38:52.759Z,100293.84
2022-10-22T05:41:55.388Z,100286.94
2022-10-22T05:44:57.406Z,100275.66
2022-10-22T05:48:00.686Z,100281.44
2022-10-22T05:51:07.445Z,100278.31
2022-10-22T05:54:11.184Z,100286.38
2022-10-22T05:57:16.457Z,100292.94
2022-10-22T06:00:22.858Z,100299.31
2022-10-22T06:03:33.482Z,100300.47
2022-10-22T06:06:38.051Z,100299.62
2022-10-22T06:09:45.013Z,100306.19
2022-10-22T06:12:49.791Z,100311.75
2022-10-22T06:15:53.839Z,100322.03
2022-10-22T06:18:59.118Z,100322.47
2022-10-22T06:22:04.049Z,100324.87
2022-10-22T06:25:08.599Z,100313.41
2022-10-22T06:28:11.127Z,100321.00
2022-10-22T06:31:15.338Z,100317.47
2022-10-22T06:34:19.144Z,100324.22
2022-10-22T06:37:21.281Z,100331.53
2022-10-22T06:40:28.422Z,100330.34
2022-10-22T06:43:30.663Z,100334.47
2022-10-22T06:47:08.378Z,100339.38
2022-10-22T06:50:26.437Z,100347.34
2022-10-22T06:53:42.554Z,100355.81
2022-10-22T06:56:44.920Z,100346.59
2022-10-22T06:59:55.236Z,100341.97
2022-10-22T07:06:44.707Z,100339.31
2022-10-22T07:10:04.768Z,100338.16
2022-10-22T07:13:51.498Z,100343.97
2022-10-22T07:16:35.957Z,100337.06
2022-10-22T07:19:54.246Z,100335.47
2022-10-22T07:22:57.349Z,100335.87
2022-10-22T07:26:03.901Z,100325.25
2022-10-22T07:29:11.141Z,100328.59
2022-10-22T07:32:13.080Z,100336.25
2022-10-22T07:35:19.211Z,100333.66
2022-10-22T07:38:22.711Z,100326.31
2022-10-22T07:41:25.166Z,100322.06
2022-10-22T07:44:27.602Z,100335.22
2022-10-22T07:47:30.942Z,100326.81
2022-10-22T07:50:39.114Z,100317.47
2022-10-22T07:53:45.698Z,100324.94
2022-10-22T07:56:59.593Z,100330.41
2022-10-22T08:00:09.571Z,100332.53
2022-10-22T08:03:14.727Z,100341.31
2022-10-22T08:06:28.980Z,100338.56
2022-10-22T08:09:50.290Z,100335.75
2022-10-22T08:12:53.585Z,100327.69
2022-10-22T08:15:57.558Z,100337.00
2022-10-22T08:18:59.696Z,100342.66
2022-10-22T08:22:02.355Z,100339.44
2022-10-22T08:25:09.602Z,100336.50
2022-10-22T08:28:11.607Z,100338.56
2022-10-22T08:31:14.628Z,100342.28
2022-10-22T08:34:23.534Z,100336.41
2022-10-22T08:37:26.191Z,100339.09
2022-10-22T08:40:44.725Z,100342.81
2022-10-22T08:47:43.665Z,100347.03
2022-10-22T08:54:31.319Z,100353.59
2022-10-22T08:57:55.806Z,100342.84
2022-10-22T09:01:03.592Z,100336.09
2022-10-22T09:04:38.234Z,100353.91
2022-10-22T09:07:53.029Z,100334.97
2022-10-22T09:11:13.730Z,100345.19
2022-10-22T09:14:23.398Z,100354.03
2022-10-22T09:17:28.836Z,100349.75
2022-10-22T09:20:45.151Z,100356.09
2022-10-22T09:27:32.827Z,100338.41
2022-10-22T09:30:37.729Z,100335.91
2022-10-22T09:33:41.664Z,100344.63
2022-10-22T09:36:51.173Z,100350.75
2022-10-22T09:39:57.862Z,100355.19
2022-10-22T09:43:01.836Z,100367.25
2022-10-22T09:46:27.918Z,100363.34
2022-10-22T09:49:33.004Z,100360.84
2022-10-22T09:52:35.590Z,100360.44
2022-10-22T09:55:45.989Z,100347.03
2022-10-22T09:58:52.760Z,100340.84
2022-10-22T10:02:38.072Z,100346.84
2022-10-22T10:05:44.406Z,100344.19
2022-10-22T10:08:46.925Z,100348.34
2022-10-22T10:12:02.559Z,100350.03
2022-10-22T10:15:29.927Z,100340.62
2022-10-22T10:18:57.228Z,100331.63
2022-10-22T10:22:17.458Z,100330.25
2022-10-22T10:25:41.391Z,100322.00
2022-10-22T10:28:54.573Z,100325.16
2022-10-22T10:32:35.334Z,100330.69
2022-10-22T10:35:56.991Z,100332.91
2022-10-22T10:39:12.386Z,100319.59
2022-10-22T10:42:45.596Z,100318.25
2022-10-22T10:45:58.216Z,100319.34
2022-10-22T10:49:01.328Z,100325.28
2022-10-22T10:52:18.972Z,100330.62
2022-10-22T10:55:31.792Z,100336.19
2022-10-22T10:58:56.272Z,100339.31
2022-10-22T11:02:21.626Z,100345.16
2022-10-22T11:05:48.445Z,100349.69
2022-10-22T11:08:59.552Z,100346.38
2022-10-22T11:12:12.462Z,100344.75
2022-10-22T11:15:35.814Z,100343.34
2022-10-22T11:19:01.644Z,100340.75
2022-10-22T11:22:22.410Z,100328.28
2022-10-22T11:25:35.212Z,100329.47
2022-10-22T11:28:40.784Z,100322.28
2022-10-22T11:31:46.164Z,100326.44
2022-10-22T11:35:00.777Z,100309.78
2022-10-22T11:38:08.917Z,100296.47
2022-10-22T11:41:20.865Z,100299.78
2022-10-22T11:44:25.648Z,100302.66
2022-10-22T11:47:52.186Z,100294.59
2022-10-22T11:51:06.270Z,100295.50
2022-10-22T11:54:29.194Z,100289.91
2022-10-22T11:57:38.817Z,100288.53
2022-10-22T12:00:47.155Z,100291.31
2022-10-22T12:03:54.256Z,100292.72
2022-10-22T12:07:01.111Z,100291.31
2022-10-22T12:10:18.469Z,100291.47
2022-10-22T12:13:41.736Z,100281.41
2022-10-22T12:16:57.253Z,100278.56
2022-10-22T12:20:14.109Z,100284.50
2022-10-22T12:23:18.755Z,100281.19
2022-10-22T12:26:49.586Z,100273.16
2022-10-22T12:29:56.719Z,100269.47
2022-10-22T12:33:03.548Z,100269.66
2022-10-22T12:36:06.059Z,100266.81
2022-10-22T12:39:20.335Z,100262.56
2022-10-22T12:42:25.126Z,100265.22
2022-10-22T12:45:39.117Z,100260.81
2022-10-22T12:48:43.166Z,100265.97
2022-10-22T12:51:52.797Z,100268.06
2022-10-22T12:55:00.612Z,100272.28
2022-10-22T12:58:16.868Z,100272.81
2022-10-22T13:01:28.655Z,100268.00
2022-10-22T13:04:36.376Z,100270.06
2022-10-22T13:07:39.550Z,100272.03
2022-10-22T13:10:53.077Z,100267.19
2022-10-22T13:14:03.630Z,100275.50
2022-10-22T13:17:19.746Z,100274.66
2022-10-22T13:20:22.971Z,100273.84
2022-10-22T13:23:29.940Z,100268.84
2022-10-22T13:26:34.660Z,100273.09
2022-10-22T13:29:50.692Z,100263.84
2022-10-22T13:33:00.317Z,100266.19
2022-10-22T13:36:02.561Z,100256.25
2022-10-22T13:39:17.371Z,100269.12
2022-10-22T13:42:19.483Z,100262.44
2022-10-22T13:45:21.568Z,100264.25
2022-10-22T13:48:24.730Z,100273.38
2022-10-22T13:51:30.969Z,100284.31
2022-10-22T13:54:45.974Z,100282.53
2022-10-22T13:57:50.536Z,100278.41
2022-10-22T14:01:00.622Z,100283.47
2022-10-22T14:04:17.951Z,100284.84
2022-10-22T14:07:21.623Z,100281.97
2022-10-22T14:10:24.332Z,100290.56
2022-10-22T14:13:30.004Z,100285.28
2022-10-22T14:16:34.371Z,100290.16
2022-10-22T14:19:37.431Z,100299.97
2022-10-22T14:22:39.374Z,100291.22
2022-10-22T14:25:41.398Z,100292.75
2022-10-22T14:29:08.771Z,100284.59
2022-10-22T14:32:29.284Z,100291.97
2022-10-22T14:35:32.100Z,100270.34
2022-10-22T14:38:39.809Z,100270.34
2022-10-22T14:41:42.729Z,100281.28
2022-10-22T14:44:48.270Z,100278.66
2022-10-22T14:47:57.397Z,100281.97
2022-10-22T14:51:04.561Z,100287.94
2022-10-22T14:54:12.353Z,100289.44
2022-10-22T14:57:23.911Z,100289.19
2022-10-22T15:00:26.244Z,100296.34
2022-10-22T15:03:29.295Z,100307.28
2022-10-22T15:06:31.622Z,100295.81
2022-10-22T15:09:34.095Z,100296.38
2022-10-22T15:12:40.367Z,100283.63
2022-10-22T15:18:59.927Z,100296.75
2022-10-22T15:22:02.499Z,100286.41
2022-10-22T15:25:13.660Z,100288.22
2022-10-22T15:28:28.421Z,100295.53
2022-10-22T15:31:55.878Z,100301.59
2022-10-22T15:34:58.035Z,100299.25
2022-10-22T15:38:15.326Z,100304.91
2022-10-22T15:41:17.236Z,100302.13
2022-10-22T15:44:23.505Z,100299.50
2022-10-22T15:47:36.942Z,100306.25
2022-10-22T15:50:47.318Z,100313.12
2022-10-22T15:53:54.571Z,100320.38
2022-10-22T15:56:57.236Z,100328.22
2022-10-22T16:00:02.938Z,100325.09
2022-10-22T16:03:16.732Z,100330.94
2022-10-22T16:06:19.259Z,100334.12
2022-10-22T16:09:25.027Z,100343.56
2022-10-22T16:12:33.198Z,100348.53
2022-10-22T16:15:43.189Z,100352.03
2022-10-22T16:18:46.033Z,100358.25
2022-10-22T16:21:55.758Z,100359.06
2022-10-22T16:24:59.625Z,100366.69
2022-10-22T16:28:08.468Z,100372.63
2022-10-22T16:31:13.656Z,100387.97
2022-10-22T16:34:15.511Z,100397.72
2022-10-22T16:37:17.289Z,100399.03
2022-10-22T16:40:19.157Z,100401.16
2022-10-22T16:43:21.111Z,100415.78
2022-10-22T16:46:23.259Z,100418.88
2022-10-22T16:49:25.447Z,100421.84
2022-10-22T16:52:27.615Z,100427.81
2022-10-22T16:55:29.381Z,100430.25
2022-10-22T16:58:31.236Z,100429.56
2022-10-22T17:01:36.749Z,100433.72
2022-10-22T17:04:41.510Z,100441.09
2022-10-22T17:07:43.275Z,100444.06
2022-10-22T17:10:45.091Z,100442.62
2022-10-22T17:13:48.997Z,100440.50
2022-10-22T17:16:53.815Z,100443.50
2022-10-22T17:19:55.637Z,100433.72
2022-10-22T17:22:57.384Z,100428.38
2022-10-22T17:26:00.167Z,100426.81
2022-10-22T17:29:02.000Z,100427.06
2022-10-22T17:32:03.922Z,100427.66
2022-10-22T17:35:06.759Z,100432.31
2022-10-22T17:38:08.502Z,100445.97
2022-10-22T17:41:14.912Z,100446.31
2022-10-22T17:44:17.083Z,100445.56
2022-10-22T17:47:18.948Z,100441.28
2022-10-22T17:50:20.732Z,100454.56
2022-10-22T17:53:22.457Z,100468.94
2022-10-22T17:56:25.922Z,100469.81
2022-10-22T17:59:27.690Z,100460.75
2022-10-22T18:02:30.356Z,100452.69
2022-10-22T18:05:33.065Z,100461.25
2022-10-22T18:08:34.853Z,100467.22
2022-10-22T18:11:37.333Z,100479.16
2022-10-22T18:14:39.235Z,100484.00
2022-10-22T18:17:41.606Z,100476.47
2022-10-22T18:20:48.022Z,100490.50
2022-10-22T18:23:49.914Z,100486.94
2022-10-22T18:26:52.466Z,100477.84
2022-10-22T18:29:54.330Z,100489.34
2022-10-22T18:32:56.152Z,100500.50
2022-10-22T18:36:02.975Z,100501.47
2022-10-22T18:39:05.166Z,100511.41
2022-10-22T18:42:07.356Z,100502.50
2022-10-22T18:45:10.624Z,100516.41
2022-10-22T18:48:16.823Z,100523.94
2022-10-22T18:51:18.591Z,100513.62
2022-10-22T18:54:23.957Z,100518.84
2022-10-22T18:57:26.323Z,100512.25
2022-10-22T19:00:28.189Z,100521.28
2022-10-22T19:03:30.013Z,100509.66
2022-10-22T19:06:34.509Z,100499.88
2022-10-22T19:09:37.858Z,100518.75
2022-10-22T19:12:39.703Z,100527.88
2022-10-22T19:15:41.705Z,100524.50
2022-10-22T19:18:43.501Z,100523.81
2022-10-22T19:21:45.472Z,100517.94
2022-10-22T19:24:50.448Z,100525.25
2022-10-22T19:27:52.547Z,100527.31
2022-10-22T19:30:54.687Z,100527.16
2022-10-22T19:33:56.614Z,100531.94
2022-10-22T19:36:58.345Z,100531.94
2022-10-22T19:40:00.220Z,100532.78
2022-10-22T19:43:02.016Z,100536.47
2022-10-22T19:46:04.427Z,100551.28
2022-10-22T19:49:06.525Z,100548.66
2022-10-22T19:52:08.383Z,100545.84
2022-10-22T19:55:10.650Z,100561.38
2022-10-22T19:58:12.452Z,100553.72
2022-10-22T20:01:15.263Z,100568.16
2022-10-22T20:04:17.746Z,100568.34
2022-10-22T20:07:19.524Z,100574.81
2022-10-22T20:10:21.427Z,100580.97
2022-10-22T20:13:23.247Z,100592.66
2022-10-22T20:16:28.474Z,100585.25
2022-10-22T20:19:30.528Z,100588.03
2022-10-22T20:22:32.417Z,100598.66
2022-10-22T20:25:35.410Z,100589.78
2022-10-22T20:28:38.431Z,100598.06
2022-10-22T20:31:40.276Z,100597.88
2022-10-22T20:34:42.488Z,100606.53
2022-10-22T20:37:44.374Z,100601.50
2022-10-22T20:40:46.272Z,100603.50
2022-10-22T20:43:48.868Z,100605.97
2022-10-22T20:46:51.717Z,100595.16
2022-10-22T20:49:53.691Z,100595.34
2022-10-22T20:52:55.490Z,100605.16
2022-10-22T20:55:59.061Z,100610.91
2022-10-22T20:59:04.976Z,100607.34
2022-10-22T21:02:08.926Z,100608.72
2022-10-22T21:05:10.919Z,100610.66
2022-10-22T21:08:17.373Z,100616.72
2022-10-22T21:11:20.001Z,100608.66
2022-10-22T21:14:25.247Z,100618.16
2022-10-22T21:17:27.253Z,100616.56
2022-10-22T21:20:29.139Z,100627.28
2022-10-22T21:23:31.653Z,100624.44
2022-10-22T21:26:36.997Z,100618.28
2022-10-22T21:29:38.989Z,100629.94
2022-10-22T21:32:41.262Z,100624.09
2022-10-22T21:35:55.081Z,100636.00
2022-10-22T21:38:59.861Z,100635.66
2022-10-22T21:42:01.958Z,100625.62
2022-10-22T21:45:04.079Z,100633.72
2022-10-22T21:48:07.558Z,100623.75
2022-10-22T21:51:14.443Z,100614.84
2022-10-22T21:54:20.318Z,100613.47
2022-10-22T21:57:22.320Z,100612.72
2022-10-22T22:00:24.358Z,100605.72
2022-10-22T22:03:27.303Z,100608.81
2022-10-22T22:06:33.035Z,100608.34
2022-10-22T22:09:35.489Z,100606.59
2022-10-22T22:12:37.426Z,100613.19
2022-10-22T22:15:39.272Z,100602.16
2022-10-22T22:18:54.980Z,100605.50
2022-10-22T22:21:57.187Z,100615.50
2022-10-22T22:24:59.779Z,100618.16
2022-10-22T22:28:01.794Z,100614.84
2022-10-22T22:31:12.763Z,100625.91
2022-10-22T22:34:17.654Z,100627.25
2022-10-22T22:37:20.981Z,100631.38
2022-10-22T22:40:28.259Z,100630.84
2022-10-22T22:43:37.970Z,100643.06
2022-10-22T22:46:46.018Z,100640.09
2022-10-22T22:49:48.892Z,100646.41
2022-10-22T22:52:50.823Z,100649.63
2022-10-22T22:56:05.112Z,100647.09
2022-10-22T22:59:07.830Z,100657.81
2022-10-22T23:02:12.174Z,100657.63
2022-10-22T23:05:17.929Z,100670.19
2022-10-22T23:08:24.818Z,100666.47
2022-10-22T23:11:34.315Z,100669.09
2022-10-22T23:14:36.333Z,100669.47
2022-10-22T23:17:39.034Z,100671.59
2022-10-22T23:20:41.083Z,100676.66
2022-10-22T23:23:45.281Z,100663.78
2022-10-22T23:26:49.962Z,100664.09
2022-10-22T23:29:55.313Z,100670.22
2022-10-22T23:32:57.284Z,100671.34
2022-10-22T23:36:09.215Z,100662.31
2022-10-22T23:39:20.509Z,100673.91
2022-10-22T23:42:23.208Z,100680.63
2022-10-22T23:45:25.105Z,100678.66
2022-10-22T23:48:32.682Z,100679.50
2022-10-22T23:51:34.807Z,100671.31
2022-10-22T23:54:43.984Z,100679.03
2022-10-22T23:57:51.802Z,100664.53
